map of KCQB home
KCQB - Airport
Location
City:  Chandler, Oklahoma, United States
Name:Chandler Regional
ICAO:KCQB
FAA LID:CQB

Details
Type:Airport (Airfield)
Use:Public/Civil
Latitude:3543'27"N (35.724083)
Longitude:9649'13"W (-96.820277)
Datum:WGS 1984
Elevation:985 ft (300 m)
Variation:3.19E (WMM2015v2 magnetic declination)
-0.09 annual change
Runways:1
Longest:4000 × 60 ft (1219 × 18.5 m), paved

Time
Time Zone:UTC-6 (DST-5)
Local Time:

Weather
METAR:KCQB 041415Z AUTO 31015G19KT 10SM CLR 11/05 A2980 RMK AO2 T01120052

Related Locations
Nearby:
Farthest:RRG: 10807 mi / 17392 km
Plaine Corail [Sir Gatan Duval Airport (Plaine Corail Airport)], Rodrigues Island, MU

Find:

   beyond  
but within

Other Information
Maps:
NOTAMs:
Links:
Sources:

  
  • flag of United States
  • flag of Oklahoma
  

Sectional Chart

Flight Planning
at skyvector.com

Satellite Image

Google Maps Satellite view

 

Copyright © 2004-2019 Karl L. Swartz. All rights reserved.
The Great Circle Mapper name and logo are trademarks of the Great Circle Mapper.
All other trademarks mentioned herein belong to their respective owners.
Please see credits for attibutions and further copyright information.

  Follow gcmap on Facebook Follow gcmap on Twitter GCmap on LinkedIn

hCard Microformat

Geo Microformat